sensor_id;sensor_type;location;lat;lon;timestamp;pressure;altitude;pressure_sealevel;temperature;humidity
61026;BME280;46911;32.650;-16.902;2022-07-26T00:00:09;101861.47;;;22.98;71.46
61026;BME280;46911;32.650;-16.902;2022-07-26T00:02:14;101858.03;;;22.96;70.84
61026;BME280;46911;32.650;-16.902;2022-07-26T00:04:19;101839.94;;;22.87;69.70
61026;BME280;46911;32.650;-16.902;2022-07-26T00:06:23;101833.78;;;22.85;69.34
61026;BME280;46911;32.650;-16.902;2022-07-26T00:08:29;101829.06;;;22.87;68.68
61026;BME280;46911;32.650;-16.902;2022-07-26T00:10:30;101865.19;;;22.97;68.86
61026;BME280;46911;32.650;-16.902;2022-07-26T00:12:31;101840.94;;;22.86;68.68
61026;BME280;46911;32.650;-16.902;2022-07-26T00:14:35;101858.88;;;22.97;68.80
61026;BME280;46911;32.650;-16.902;2022-07-26T00:16:40;101839.38;;;22.83;68.95
61026;BME280;46911;32.650;-16.902;2022-07-26T00:18:41;101852.75;;;22.95;69.29
61026;BME280;46911;32.650;-16.902;2022-07-26T00:20:43;101856.31;;;22.95;69.77
61026;BME280;46911;32.650;-16.902;2022-07-26T00:22:44;101844.75;;;22.93;69.52
61026;BME280;46911;32.650;-16.902;2022-07-26T00:24:48;101854.59;;;22.94;69.21
61026;BME280;46911;32.650;-16.902;2022-07-26T00:26:49;101829.53;;;22.82;69.16
61026;BME280;46911;32.650;-16.902;2022-07-26T00:28:57;101846.44;;;22.94;69.00
61026;BME280;46911;32.650;-16.902;2022-07-26T00:30:58;101847.16;;;22.96;67.96
61026;BME280;46911;32.650;-16.902;2022-07-26T00:33:01;101824.63;;;22.86;67.27
61026;BME280;46911;32.650;-16.902;2022-07-26T00:35:03;101822.59;;;22.88;66.98
61026;BME280;46911;32.650;-16.902;2022-07-26T00:37:07;101816.63;;;22.84;66.80
61026;BME280;46911;32.650;-16.902;2022-07-26T00:39:08;101822.38;;;22.81;66.55
61026;BME280;46911;32.650;-16.902;2022-07-26T00:41:08;101815.06;;;22.82;66.61
61026;BME280;46911;32.650;-16.902;2022-07-26T00:43:12;101819.34;;;22.84;66.87
61026;BME280;46911;32.650;-16.902;2022-07-26T00:45:18;101803.63;;;22.78;67.07
61026;BME280;46911;32.650;-16.902;2022-07-26T00:47:21;101823.28;;;22.90;67.24
61026;BME280;46911;32.650;-16.902;2022-07-26T00:49:29;101801.06;;;22.77;66.99
61026;BME280;46911;32.650;-16.902;2022-07-26T00:51:32;101818.22;;;22.95;65.54
61026;BME280;46911;32.650;-16.902;2022-07-26T00:53:33;101811.06;;;22.94;65.04
61026;BME280;46911;32.650;-16.902;2022-07-26T00:55:34;101821.94;;;22.94;64.36
61026;BME280;46911;32.650;-16.902;2022-07-26T00:57:39;101803.72;;;22.86;64.88
61026;BME280;46911;32.650;-16.902;2022-07-26T00:59:40;101799.28;;;22.85;64.57
61026;BME280;46911;32.650;-16.902;2022-07-26T01:01:41;101815.34;;;22.97;64.94
61026;BME280;46911;32.650;-16.902;2022-07-26T01:03:42;101799.13;;;22.87;66.43
61026;BME280;46911;32.650;-16.902;2022-07-26T01:05:47;101816.50;;;22.94;66.65
61026;BME280;46911;32.650;-16.902;2022-07-26T01:07:51;101789.75;;;22.81;66.78
61026;BME280;46911;32.650;-16.902;2022-07-26T01:09:52;101801.84;;;22.87;66.39
61026;BME280;46911;32.650;-16.902;2022-07-26T01:11:53;101787.47;;;22.77;66.61
61026;BME280;46911;32.650;-16.902;2022-07-26T01:13:54;101786.47;;;22.78;66.37
61026;BME280;46911;32.650;-16.902;2022-07-26T01:15:55;101777.78;;;22.74;66.15
61026;BME280;46911;32.650;-16.902;2022-07-26T01:17:56;101785.78;;;22.76;65.46
61026;BME280;46911;32.650;-16.902;2022-07-26T01:19:57;101770.94;;;22.70;65.10
61026;BME280;46911;32.650;-16.902;2022-07-26T01:22:00;101772.31;;;22.74;64.57
61026;BME280;46911;32.650;-16.902;2022-07-26T01:24:04;101781.41;;;22.83;63.84
61026;BME280;46911;32.650;-16.902;2022-07-26T01:26:08;101757.72;;;22.75;63.50
61026;BME280;46911;32.650;-16.902;2022-07-26T01:28:09;101780.63;;;22.90;63.14
61026;BME280;46911;32.650;-16.902;2022-07-26T01:30:15;101764.47;;;22.89;62.95
61026;BME280;46911;32.650;-16.902;2022-07-26T01:32:17;101747.22;;;22.80;63.02
61026;BME280;46911;32.650;-16.902;2022-07-26T01:34:20;101748.06;;;22.81;63.04
61026;BME280;46911;32.650;-16.902;2022-07-26T01:36:21;101750.44;;;22.76;63.27
61026;BME280;46911;32.650;-16.902;2022-07-26T01:38:25;101752.34;;;22.83;63.47
61026;BME280;46911;32.650;-16.902;2022-07-26T01:40:26;101732.03;;;22.69;63.33
61026;BME280;46911;32.650;-16.902;2022-07-26T01:42:27;101739.56;;;22.76;65.48
61026;BME280;46911;32.650;-16.902;2022-07-26T01:44:28;101749.94;;;22.80;65.32
61026;BME280;46911;32.650;-16.902;2022-07-26T01:46:34;101743.28;;;22.74;65.97
61026;BME280;46911;32.650;-16.902;2022-07-26T01:48:35;101737.13;;;22.72;68.91
61026;BME280;46911;32.650;-16.902;2022-07-26T01:50:41;101749.41;;;22.77;69.89
61026;BME280;46911;32.650;-16.902;2022-07-26T01:52:42;101734.75;;;22.69;70.32
61026;BME280;46911;32.650;-16.902;2022-07-26T01:54:47;101741.41;;;22.75;71.21
61026;BME280;46911;32.650;-16.902;2022-07-26T01:56:48;101729.47;;;22.68;71.56
61026;BME280;46911;32.650;-16.902;2022-07-26T01:58:49;101724.66;;;22.62;71.71
61026;BME280;46911;32.650;-16.902;2022-07-26T02:00:52;101741.19;;;22.68;71.79
61026;BME280;46911;32.650;-16.902;2022-07-26T02:02:56;101719.00;;;22.55;71.91
61026;BME280;46911;32.650;-16.902;2022-07-26T02:05:03;101718.31;;;22.53;71.65
61026;BME280;46911;32.650;-16.902;2022-07-26T02:07:04;101730.75;;;22.55;71.28
61026;BME280;46911;32.650;-16.902;2022-07-26T02:09:08;101719.09;;;22.45;70.31
61026;BME280;46911;32.650;-16.902;2022-07-26T02:11:09;101730.50;;;22.49;69.88
61026;BME280;46911;32.650;-16.902;2022-07-26T02:13:11;101710.03;;;22.36;69.03
61026;BME280;46911;32.650;-16.902;2022-07-26T02:15:13;101730.81;;;22.46;68.16
61026;BME280;46911;32.650;-16.902;2022-07-26T02:17:21;101719.47;;;22.32;68.00
61026;BME280;46911;32.650;-16.902;2022-07-26T02:19:24;101717.34;;;22.36;67.97
61026;BME280;46911;32.650;-16.902;2022-07-26T02:21:26;101738.31;;;22.44;67.61
61026;BME280;46911;32.650;-16.902;2022-07-26T02:23:27;101718.78;;;22.30;67.80
61026;BME280;46911;32.650;-16.902;2022-07-26T02:25:31;101729.75;;;22.38;67.70
61026;BME280;46911;32.650;-16.902;2022-07-26T02:27:32;101727.78;;;22.31;67.65
61026;BME280;46911;32.650;-16.902;2022-07-26T02:29:36;101740.63;;;22.38;68.20
61026;BME280;46911;32.650;-16.902;2022-07-26T02:31:37;101721.34;;;22.32;68.50
61026;BME280;46911;32.650;-16.902;2022-07-26T02:33:37;101728.03;;;22.37;68.62
61026;BME280;46911;32.650;-16.902;2022-07-26T02:35:42;101721.81;;;22.27;68.86
61026;BME280;46911;32.650;-16.902;2022-07-26T02:37:43;101717.25;;;22.28;68.81
61026;BME280;46911;32.650;-16.902;2022-07-26T02:39:47;101732.47;;;22.38;69.11
61026;BME280;46911;32.650;-16.902;2022-07-26T02:41:48;101723.63;;;22.36;69.64
61026;BME280;46911;32.650;-16.902;2022-07-26T02:43:52;101724.31;;;22.38;71.52
61026;BME280;46911;32.650;-16.902;2022-07-26T02:45:53;101705.34;;;22.29;72.33
61026;BME280;46911;32.650;-16.902;2022-07-26T02:47:54;101712.91;;;22.35;71.55
61026;BME280;46911;32.650;-16.902;2022-07-26T02:49:58;101704.97;;;22.23;72.67
61026;BME280;46911;32.650;-16.902;2022-07-26T02:51:59;101714.91;;;22.33;73.17
61026;BME280;46911;32.650;-16.902;2022-07-26T02:54:02;101692.00;;;22.17;73.44
61026;BME280;46911;32.650;-16.902;2022-07-26T02:56:06;101720.81;;;22.28;72.99
61026;BME280;46911;32.650;-16.902;2022-07-26T02:58:07;101697.28;;;22.19;73.11
61026;BME280;46911;32.650;-16.902;2022-07-26T03:00:09;101709.69;;;22.21;72.83
61026;BME280;46911;32.650;-16.902;2022-07-26T03:02:11;101694.50;;;22.11;72.90
61026;BME280;46911;32.650;-16.902;2022-07-26T03:04:12;101683.63;;;22.11;72.64
61026;BME280;46911;32.650;-16.902;2022-07-26T03:06:17;101710.03;;;22.18;72.51
61026;BME280;46911;32.650;-16.902;2022-07-26T03:08:17;101678.28;;;22.01;72.49
61026;BME280;46911;32.650;-16.902;2022-07-26T03:10:21;101683.41;;;22.04;72.05
61026;BME280;46911;32.650;-16.902;2022-07-26T03:12:25;101688.00;;;22.03;71.99
61026;BME280;46911;32.650;-16.902;2022-07-26T03:14:28;101694.81;;;22.07;73.57
61026;BME280;46911;32.650;-16.902;2022-07-26T03:16:29;101689.38;;;22.07;75.08
61026;BME280;46911;32.650;-16.902;2022-07-26T03:18:30;101709.88;;;22.20;75.63
61026;BME280;46911;32.650;-16.902;2022-07-26T03:20:31;101700.78;;;22.11;76.30
61026;BME280;46911;32.650;-16.902;2022-07-26T03:22:32;101711.81;;;22.28;83.02
61026;BME280;46911;32.650;-16.902;2022-07-26T03:24:33;101724.34;;;22.29;80.06
61026;BME280;46911;32.650;-16.902;2022-07-26T03:26:36;101721.19;;;22.33;81.57
61026;BME280;46911;32.650;-16.902;2022-07-26T03:28:37;101700.72;;;22.21;81.27
61026;BME280;46911;32.650;-16.902;2022-07-26T03:30:39;101723.91;;;22.33;81.71
61026;BME280;46911;32.650;-16.902;2022-07-26T03:32:42;101709.03;;;22.19;81.98
61026;BME280;46911;32.650;-16.902;2022-07-26T03:34:43;101727.25;;;22.27;83.08
61026;BME280;46911;32.650;-16.902;2022-07-26T03:36:49;101731.00;;;22.26;83.89
61026;BME280;46911;32.650;-16.902;2022-07-26T03:38:54;101705.03;;;22.14;85.29
61026;BME280;46911;32.650;-16.902;2022-07-26T03:40:55;101721.28;;;22.23;86.83
61026;BME280;46911;32.650;-16.902;2022-07-26T03:42:58;101701.31;;;22.15;87.76
61026;BME280;46911;32.650;-16.902;2022-07-26T03:45:02;101717.19;;;22.19;89.23
61026;BME280;46911;32.650;-16.902;2022-07-26T03:47:05;101711.88;;;22.18;89.55
61026;BME280;46911;32.650;-16.902;2022-07-26T03:49:06;101711.59;;;22.21;90.63
61026;BME280;46911;32.650;-16.902;2022-07-26T03:51:07;101694.81;;;22.07;90.84
61026;BME280;46911;32.650;-16.902;2022-07-26T03:53:08;101693.44;;;22.03;90.99
61026;BME280;46911;32.650;-16.902;2022-07-26T03:55:09;101693.44;;;22.03;91.57
61026;BME280;46911;32.650;-16.902;2022-07-26T03:57:31;101687.44;;;22.00;92.08
61026;BME280;46911;32.650;-16.902;2022-07-26T03:59:32;101708.53;;;22.06;92.42
61026;BME280;46911;32.650;-16.902;2022-07-26T04:01:36;101694.72;;;21.99;92.49
61026;BME280;46911;32.650;-16.902;2022-07-26T04:03:43;101697.44;;;21.99;92.83
61026;BME280;46911;32.650;-16.902;2022-07-26T04:05:49;101694.03;;;21.97;92.65
61026;BME280;46911;32.650;-16.902;2022-07-26T04:07:53;101706.31;;;22.01;92.73
61026;BME280;46911;32.650;-16.902;2022-07-26T04:09:54;101711.91;;;22.00;92.67
61026;BME280;46911;32.650;-16.902;2022-07-26T04:11:55;101703.59;;;22.01;93.05
61026;BME280;46911;32.650;-16.902;2022-07-26T04:13:56;101710.19;;;21.99;92.71
61026;BME280;46911;32.650;-16.902;2022-07-26T04:15:57;101685.44;;;21.84;92.34
61026;BME280;46911;32.650;-16.902;2022-07-26T04:17:58;101660.28;;;21.64;92.38
61026;BME280;46911;32.650;-16.902;2022-07-26T04:19:59;101705.50;;;21.91;92.02
61026;BME280;46911;32.650;-16.902;2022-07-26T04:22:00;101696.69;;;21.89;91.95
61026;BME280;46911;32.650;-16.902;2022-07-26T04:24:03;101706.69;;;21.88;91.90
61026;BME280;46911;32.650;-16.902;2022-07-26T04:26:04;101695.97;;;21.87;92.40
61026;BME280;46911;32.650;-16.902;2022-07-26T04:28:08;101697.28;;;21.83;91.12
61026;BME280;46911;32.650;-16.902;2022-07-26T04:30:11;101680.53;;;21.69;89.72
61026;BME280;46911;32.650;-16.902;2022-07-26T04:32:12;101699.31;;;21.81;89.29
61026;BME280;46911;32.650;-16.902;2022-07-26T04:34:18;101684.56;;;21.65;88.88
61026;BME280;46911;32.650;-16.902;2022-07-26T04:36:21;101698.22;;;21.73;88.46
61026;BME280;46911;32.650;-16.902;2022-07-26T04:38:25;101698.84;;;21.67;87.88
61026;BME280;46911;32.650;-16.902;2022-07-26T04:40:29;101694.25;;;21.68;88.03
61026;BME280;46911;32.650;-16.902;2022-07-26T04:42:35;101689.59;;;21.60;87.90
61026;BME280;46911;32.650;-16.902;2022-07-26T04:44:37;101681.75;;;21.57;88.59
61026;BME280;46911;32.650;-16.902;2022-07-26T04:46:38;101691.88;;;21.65;88.93
61026;BME280;46911;32.650;-16.902;2022-07-26T04:48:39;101693.72;;;21.64;89.25
61026;BME280;46911;32.650;-16.902;2022-07-26T04:50:40;101681.44;;;21.60;89.43
61026;BME280;46911;32.650;-16.902;2022-07-26T04:52:41;101665.03;;;21.52;89.89
61026;BME280;46911;32.650;-16.902;2022-07-26T04:54:44;101666.22;;;21.49;89.04
61026;BME280;46911;32.650;-16.902;2022-07-26T04:56:46;101670.69;;;21.40;85.87
61026;BME280;46911;32.650;-16.902;2022-07-26T04:58:47;101663.25;;;21.43;83.40
61026;BME280;46911;32.650;-16.902;2022-07-26T05:00:52;101657.72;;;21.34;79.71
61026;BME280;46911;32.650;-16.902;2022-07-26T05:02:55;101679.38;;;21.44;77.75
61026;BME280;46911;32.650;-16.902;2022-07-26T05:04:56;101675.81;;;21.44;76.71
61026;BME280;46911;32.650;-16.902;2022-07-26T05:06:57;101681.53;;;21.40;74.99
61026;BME280;46911;32.650;-16.902;2022-07-26T05:09:02;101679.53;;;21.43;73.34
61026;BME280;46911;32.650;-16.902;2022-07-26T05:11:05;101672.09;;;21.45;72.97
61026;BME280;46911;32.650;-16.902;2022-07-26T05:13:08;101661.69;;;21.40;72.60
61026;BME280;46911;32.650;-16.902;2022-07-26T05:15:13;101662.94;;;21.46;70.13
61026;BME280;46911;32.650;-16.902;2022-07-26T05:17:17;101665.66;;;21.46;70.60
61026;BME280;46911;32.650;-16.902;2022-07-26T05:19:22;101666.03;;;21.51;70.39
61026;BME280;46911;32.650;-16.902;2022-07-26T05:21:26;101659.53;;;21.44;70.44
61026;BME280;46911;32.650;-16.902;2022-07-26T05:23:29;101664.34;;;21.50;70.44
61026;BME280;46911;32.650;-16.902;2022-07-26T05:25:30;101662.25;;;21.44;70.26
61026;BME280;46911;32.650;-16.902;2022-07-26T05:27:31;101659.81;;;21.40;70.22
61026;BME280;46911;32.650;-16.902;2022-07-26T05:29:34;101663.84;;;21.36;70.29
61026;BME280;46911;32.650;-16.902;2022-07-26T05:31:37;101668.69;;;21.43;70.43
61026;BME280;46911;32.650;-16.902;2022-07-26T05:33:38;101659.88;;;21.31;70.32
61026;BME280;46911;32.650;-16.902;2022-07-26T05:35:39;101680.28;;;21.35;70.38
61026;BME280;46911;32.650;-16.902;2022-07-26T05:37:42;101688.16;;;21.38;70.51
61026;BME280;46911;32.650;-16.902;2022-07-26T05:39:43;101683.88;;;21.35;70.87
61026;BME280;46911;32.650;-16.902;2022-07-26T05:41:44;101682.47;;;21.31;70.51
61026;BME280;46911;32.650;-16.902;2022-07-26T05:43:47;101683.16;;;21.33;70.26
61026;BME280;46911;32.650;-16.902;2022-07-26T05:45:48;101660.94;;;21.20;70.54
61026;BME280;46911;32.650;-16.902;2022-07-26T05:47:52;101672.53;;;21.22;70.39
61026;BME280;46911;32.650;-16.902;2022-07-26T05:49:57;101669.25;;;21.18;70.11
61026;BME280;46911;32.650;-16.902;2022-07-26T05:51:58;101669.94;;;21.20;70.20
61026;BME280;46911;32.650;-16.902;2022-07-26T05:54:03;101665.69;;;21.18;70.03
61026;BME280;46911;32.650;-16.902;2022-07-26T05:56:06;101687.50;;;21.26;69.77
61026;BME280;46911;32.650;-16.902;2022-07-26T05:58:07;101667.69;;;21.16;69.30
61026;BME280;46911;32.650;-16.902;2022-07-26T06:00:13;101688.50;;;21.25;68.62
61026;BME280;46911;32.650;-16.902;2022-07-26T06:02:16;101687.78;;;21.23;68.89
61026;BME280;46911;32.650;-16.902;2022-07-26T06:04:19;101673.28;;;21.14;68.45
61026;BME280;46911;32.650;-16.902;2022-07-26T06:06:20;101671.41;;;21.15;68.30
61026;BME280;46911;32.650;-16.902;2022-07-26T06:08:26;101683.38;;;21.22;68.24
61026;BME280;46911;32.650;-16.902;2022-07-26T06:10:30;101683.50;;;21.20;67.86
61026;BME280;46911;32.650;-16.902;2022-07-26T06:12:31;101686.22;;;21.20;67.87
61026;BME280;46911;32.650;-16.902;2022-07-26T06:14:34;101690.25;;;21.16;68.11
61026;BME280;46911;32.650;-16.902;2022-07-26T06:16:35;101674.00;;;21.06;68.08
61026;BME280;46911;32.650;-16.902;2022-07-26T06:18:36;101694.34;;;21.20;67.54
61026;BME280;46911;32.650;-16.902;2022-07-26T06:20:40;101671.72;;;21.12;67.54
61026;BME280;46911;32.650;-16.902;2022-07-26T06:22:44;101668.16;;;21.11;67.77
61026;BME280;46911;32.650;-16.902;2022-07-26T06:24:51;101680.25;;;21.17;67.72
61026;BME280;46911;32.650;-16.902;2022-07-26T06:26:55;101688.94;;;21.20;67.33
61026;BME280;46911;32.650;-16.902;2022-07-26T06:28:56;101680.50;;;21.23;66.98
61026;BME280;46911;32.650;-16.902;2022-07-26T06:31:00;101695.56;;;21.36;66.98
61026;BME280;46911;32.650;-16.902;2022-07-26T06:33:06;101669.81;;;21.22;66.93
61026;BME280;46911;32.650;-16.902;2022-07-26T06:35:08;101693.25;;;21.41;66.64
61026;BME280;46911;32.650;-16.902;2022-07-26T06:37:11;101666.03;;;21.33;66.61
61026;BME280;46911;32.650;-16.902;2022-07-26T06:39:15;101668.28;;;21.37;66.20
61026;BME280;46911;32.650;-16.902;2022-07-26T06:41:16;101685.91;;;21.51;66.34
61026;BME280;46911;32.650;-16.902;2022-07-26T06:43:22;101687.50;;;21.54;66.29
61026;BME280;46911;32.650;-16.902;2022-07-26T06:45:25;101695.75;;;21.62;66.12
61026;BME280;46911;32.650;-16.902;2022-07-26T06:47:26;101695.97;;;21.69;66.44
61026;BME280;46911;32.650;-16.902;2022-07-26T06:49:30;101683.97;;;21.71;66.79
61026;BME280;46911;32.650;-16.902;2022-07-26T06:51:33;101681.88;;;21.83;66.93
61026;BME280;46911;32.650;-16.902;2022-07-26T06:53:35;101704.28;;;22.03;66.46
61026;BME280;46911;32.650;-16.902;2022-07-26T06:55:36;101690.00;;;22.01;66.25
61026;BME280;46911;32.650;-16.902;2022-07-26T06:57:39;101690.22;;;22.08;66.33
61026;BME280;46911;32.650;-16.902;2022-07-26T06:59:43;101705.81;;;22.24;65.50
61026;BME280;46911;32.650;-16.902;2022-07-26T07:01:44;101704.50;;;22.28;65.01
61026;BME280;46911;32.650;-16.902;2022-07-26T07:03:48;101696.00;;;22.31;64.69
61026;BME280;46911;32.650;-16.902;2022-07-26T07:05:49;101687.19;;;22.29;64.55
61026;BME280;46911;32.650;-16.902;2022-07-26T07:07:50;101705.50;;;22.45;65.11
61026;BME280;46911;32.650;-16.902;2022-07-26T07:09:53;101704.19;;;22.49;64.23
61026;BME280;46911;32.650;-16.902;2022-07-26T07:11:56;101703.69;;;22.54;63.53
61026;BME280;46911;32.650;-16.902;2022-07-26T07:14:01;101719.59;;;22.67;63.27
61026;BME280;46911;32.650;-16.902;2022-07-26T07:16:02;101702.94;;;22.70;63.42
61026;BME280;46911;32.650;-16.902;2022-07-26T07:18:06;101710.47;;;22.76;63.16
61026;BME280;46911;32.650;-16.902;2022-07-26T07:20:10;101707.25;;;22.81;62.73
61026;BME280;46911;32.650;-16.902;2022-07-26T07:22:11;101724.22;;;23.01;62.65
61026;BME280;46911;32.650;-16.902;2022-07-26T07:24:12;101704.66;;;22.97;62.44
61026;BME280;46911;32.650;-16.902;2022-07-26T07:26:16;101723.34;;;23.18;62.07
61026;BME280;46911;32.650;-16.902;2022-07-26T07:28:17;101718.59;;;23.29;61.76
61026;BME280;46911;32.650;-16.902;2022-07-26T07:30:20;101721.03;;;23.40;61.44
61026;BME280;46911;32.650;-16.902;2022-07-26T07:32:21;101677.56;;;23.22;61.29
61026;BME280;46911;32.650;-16.902;2022-07-26T07:34:29;101715.44;;;23.50;60.78
61026;BME280;46911;32.650;-16.902;2022-07-26T07:36:30;101711.72;;;23.59;60.51
61026;BME280;46911;32.650;-16.902;2022-07-26T07:38:30;101713.09;;;23.71;60.35
61026;BME280;46911;32.650;-16.902;2022-07-26T07:40:34;101729.03;;;23.93;60.32
61026;BME280;46911;32.650;-16.902;2022-07-26T07:42:35;101681.97;;;23.74;59.90
61026;BME280;46911;32.650;-16.902;2022-07-26T07:44:38;101729.56;;;24.13;59.91
61026;BME280;46911;32.650;-16.902;2022-07-26T07:46:41;101732.78;;;24.24;59.99
61026;BME280;46911;32.650;-16.902;2022-07-26T07:48:45;101737.22;;;24.34;59.92
61026;BME280;46911;32.650;-16.902;2022-07-26T07:50:48;101728.88;;;24.44;59.11
61026;BME280;46911;32.650;-16.902;2022-07-26T07:52:49;101707.75;;;24.46;58.80
61026;BME280;46911;32.650;-16.902;2022-07-26T07:54:52;101712.00;;;24.56;58.00
61026;BME280;46911;32.650;-16.902;2022-07-26T07:56:53;101730.03;;;24.82;57.75
61026;BME280;46911;32.650;-16.902;2022-07-26T07:58:58;101741.66;;;24.76;58.35
61026;BME280;46911;32.650;-16.902;2022-07-26T08:01:01;101727.16;;;24.67;58.52
61026;BME280;46911;32.650;-16.902;2022-07-26T08:03:02;101734.84;;;24.72;58.81
61026;BME280;46911;32.650;-16.902;2022-07-26T08:05:08;101743.19;;;24.70;59.97
61026;BME280;46911;32.650;-16.902;2022-07-26T08:07:11;101741.66;;;24.68;60.54
61026;BME280;46911;32.650;-16.902;2022-07-26T08:09:15;101740.47;;;24.70;61.60
61026;BME280;46911;32.650;-16.902;2022-07-26T08:11:19;101734.69;;;24.73;62.40
61026;BME280;46911;32.650;-16.902;2022-07-26T08:13:21;101752.53;;;24.93;62.05
61026;BME280;46911;32.650;-16.902;2022-07-26T08:15:22;101755.06;;;25.02;61.98
61026;BME280;46911;32.650;-16.902;2022-07-26T08:17:23;101748.41;;;25.05;61.54
61026;BME280;46911;32.650;-16.902;2022-07-26T08:19:23;101758.38;;;25.29;61.27
61026;BME280;46911;32.650;-16.902;2022-07-26T08:21:30;101732.31;;;25.18;60.35
61026;BME280;46911;32.650;-16.902;2022-07-26T08:23:33;101754.63;;;25.30;60.67
61026;BME280;46911;32.650;-16.902;2022-07-26T08:25:34;101740.66;;;25.25;60.93
61026;BME280;46911;32.650;-16.902;2022-07-26T08:27:38;101758.88;;;25.41;59.98
61026;BME280;46911;32.650;-16.902;2022-07-26T08:29:44;101740.47;;;25.43;59.46
61026;BME280;46911;32.650;-16.902;2022-07-26T08:31:45;101761.97;;;25.38;61.55
61026;BME280;46911;32.650;-16.902;2022-07-26T08:33:47;101759.53;;;25.51;61.34
61026;BME280;46911;32.650;-16.902;2022-07-26T08:35:48;101758.47;;;25.61;59.56
61026;BME280;46911;32.650;-16.902;2022-07-26T08:37:53;101759.34;;;25.53;56.94
61026;BME280;46911;32.650;-16.902;2022-07-26T08:39:54;101746.09;;;25.42;56.37
61026;BME280;46911;32.650;-16.902;2022-07-26T08:41:56;101752.41;;;25.42;55.39
61026;BME280;46911;32.650;-16.902;2022-07-26T08:44:08;101759.25;;;25.69;57.11
61026;BME280;46911;32.650;-16.902;2022-07-26T08:46:11;101757.81;;;25.50;58.50
61026;BME280;46911;32.650;-16.902;2022-07-26T08:48:15;101748.41;;;25.53;58.07
61026;BME280;46911;32.650;-16.902;2022-07-26T08:50:16;101767.72;;;25.83;57.99
61026;BME280;46911;32.650;-16.902;2022-07-26T08:52:17;101769.22;;;25.94;58.35
61026;BME280;46911;32.650;-16.902;2022-07-26T08:54:18;101750.34;;;25.76;60.00
61026;BME280;46911;32.650;-16.902;2022-07-26T08:56:21;101768.19;;;25.63;61.51
61026;BME280;46911;32.650;-16.902;2022-07-26T08:58:24;101757.31;;;25.47;61.40
61026;BME280;46911;32.650;-16.902;2022-07-26T09:00:27;101770.13;;;25.46;60.84
61026;BME280;46911;32.650;-16.902;2022-07-26T09:02:40;101764.16;;;25.43;62.37
61026;BME280;46911;32.650;-16.902;2022-07-26T09:04:43;101776.44;;;25.55;62.36
61026;BME280;46911;32.650;-16.902;2022-07-26T09:07:07;101783.47;;;25.81;62.56
61026;BME280;46911;32.650;-16.902;2022-07-26T09:09:09;101771.00;;;25.78;63.42
61026;BME280;46911;32.650;-16.902;2022-07-26T09:11:26;101789.25;;;25.86;64.81
61026;BME280;46911;32.650;-16.902;2022-07-26T09:13:54;101784.56;;;26.26;64.44
61026;BME280;46911;32.650;-16.902;2022-07-26T09:16:11;101796.59;;;26.17;64.24
61026;BME280;46911;32.650;-16.902;2022-07-26T09:18:28;101788.78;;;26.14;65.21
61026;BME280;46911;32.650;-16.902;2022-07-26T09:20:31;101807.41;;;26.33;64.58
61026;BME280;46911;32.650;-16.902;2022-07-26T09:22:32;101795.25;;;26.13;64.96
61026;BME280;46911;32.650;-16.902;2022-07-26T09:24:47;101800.41;;;26.08;65.60
61026;BME280;46911;32.650;-16.902;2022-07-26T09:26:58;101793.63;;;26.03;65.59
61026;BME280;46911;32.650;-16.902;2022-07-26T09:29:08;101816.41;;;26.19;65.13
61026;BME280;46911;32.650;-16.902;2022-07-26T09:31:09;101807.59;;;26.32;63.70
61026;BME280;46911;32.650;-16.902;2022-07-26T09:33:15;101803.78;;;26.41;62.50
61026;BME280;46911;32.650;-16.902;2022-07-26T09:35:16;101807.03;;;26.60;62.52
61026;BME280;46911;32.650;-16.902;2022-07-26T09:37:32;101809.00;;;26.74;61.13
61026;BME280;46911;32.650;-16.902;2022-07-26T09:39:56;101817.66;;;27.01;61.34
61026;BME280;46911;32.650;-16.902;2022-07-26T09:42:10;101800.56;;;27.59;59.86
61026;BME280;46911;32.650;-16.902;2022-07-26T09:44:21;101825.25;;;27.95;58.05
61026;BME280;46911;32.650;-16.902;2022-07-26T09:46:23;101808.56;;;27.75;57.90
61026;BME280;46911;32.650;-16.902;2022-07-26T09:48:28;101817.38;;;27.40;58.92
61026;BME280;46911;32.650;-16.902;2022-07-26T09:50:33;101800.16;;;27.77;58.32
61026;BME280;46911;32.650;-16.902;2022-07-26T09:52:36;101808.75;;;28.25;56.40
61026;BME280;46911;32.650;-16.902;2022-07-26T09:54:37;101802.91;;;28.78;54.42
61026;BME280;46911;32.650;-16.902;2022-07-26T09:58:42;101804.34;;;27.58;57.18
61026;BME280;46911;32.650;-16.902;2022-07-26T10:00:49;101818.03;;;27.58;57.71
61026;BME280;46911;32.650;-16.902;2022-07-26T10:02:52;101821.81;;;27.71;57.27
61026;BME280;46911;32.650;-16.902;2022-07-26T10:04:56;101817.69;;;27.46;56.75
61026;BME280;46911;32.650;-16.902;2022-07-26T10:06:57;101820.44;;;28.55;54.21
61026;BME280;46911;32.650;-16.902;2022-07-26T10:08:59;101807.66;;;28.91;53.45
61026;BME280;46911;32.650;-16.902;2022-07-26T10:11:06;101808.34;;;29.28;52.15
61026;BME280;46911;32.650;-16.902;2022-07-26T10:13:09;101805.97;;;29.60;51.04
61026;BME280;46911;32.650;-16.902;2022-07-26T10:15:34;101823.25;;;29.96;49.96
61026;BME280;46911;32.650;-16.902;2022-07-26T10:17:39;101812.69;;;29.99;49.70
61026;BME280;46911;32.650;-16.902;2022-07-26T10:19:41;101822.69;;;29.59;51.32
61026;BME280;46911;32.650;-16.902;2022-07-26T10:21:42;101817.16;;;30.07;50.10
61026;BME280;46911;32.650;-16.902;2022-07-26T10:23:45;101834.94;;;29.56;52.89
61026;BME280;46911;32.650;-16.902;2022-07-26T10:25:47;101836.81;;;29.55;52.38
61026;BME280;46911;32.650;-16.902;2022-07-26T10:29:50;101849.25;;;29.86;51.39
61026;BME280;46911;32.650;-16.902;2022-07-26T10:32:14;101839.22;;;29.30;53.49